Time;durP1;ratioP1;P1;durP2;ratioP2;P2;SDS_P1;SDS_P2;PMS_P1;PMS_P2;Temp;Humidity;BMP_temperature;BMP_pressure;BME280_temperature;BME280_humidity;BME280_pressure;Samples;Min_cycle;Max_cycle;Signal;HPM_P1;HPM_P2
2024/01/06 00:01:36;;;;;;;7.72;4.50;;;;;;;;;;5089360;28;20023;-55
2024/01/06 00:04:02;;;;;;;6.60;3.85;;;;;;;;;;5072411;28;20074;-54
2024/01/06 00:06:28;;;;;;;6.93;4.25;;;;;;;;;;5069306;28;20024;-52
2024/01/06 00:08:54;;;;;;;6.40;3.80;;;;;;;;;;5068714;28;20359;-55
2024/01/06 00:11:21;;;;;;;6.90;4.10;;;;;;;;;;5069829;28;20656;-55
2024/01/06 00:13:47;;;;;;;7.68;4.25;;;;;;;;;;5068773;28;20016;-54
2024/01/06 00:16:13;;;;;;;13.57;4.97;;;;;;;;;;5068911;28;20048;-56
2024/01/06 00:18:39;;;;;;;6.20;3.70;;;;;;;;;;5082624;28;20439;-57
2024/01/06 00:21:05;;;;;;;8.80;3.90;;;;;;;;;;5088854;28;20027;-56
2024/01/06 00:23:31;;;;;;;10.10;4.63;;;;;;;;;;5089354;28;20028;-57
2024/01/06 00:25:57;;;;;;;6.80;3.97;;;;;;;;;;5085251;28;20027;-55
2024/01/06 00:28:24;;;;;;;7.00;3.90;;;;;;;;;;5089119;28;20542;-51
2024/01/06 00:30:50;;;;;;;11.15;4.80;;;;;;;;;;5070641;28;20519;-58
2024/01/06 00:33:16;;;;;;;6.38;3.80;;;;;;;;;;5078519;28;20025;-54
2024/01/06 00:35:42;;;;;;;6.30;3.70;;;;;;;;;;5073569;28;20024;-54
2024/01/06 00:38:08;;;;;;;6.20;3.70;;;;;;;;;;5069395;22;20045;-51
2024/01/06 00:40:34;;;;;;;6.43;3.80;;;;;;;;;;5049474;28;20078;-47
2024/01/06 00:43:00;;;;;;;7.40;4.43;;;;;;;;;;5047907;28;20086;-51
2024/01/06 00:45:26;;;;;;;8.35;5.00;;;;;;;;;;5048364;28;20504;-52
2024/01/06 00:47:52;;;;;;;7.88;4.57;;;;;;;;;;5048216;28;20503;-45
2024/01/06 00:50:19;;;;;;;7.30;4.30;;;;;;;;;;5048409;28;20021;-46
2024/01/06 00:52:45;;;;;;;6.78;4.00;;;;;;;;;;5042507;28;20364;-50
2024/01/06 00:55:11;;;;;;;6.63;3.90;;;;;;;;;;5046801;28;20075;-46
2024/01/06 00:57:37;;;;;;;7.10;4.20;;;;;;;;;;5050051;28;20025;-48
2024/01/06 01:00:07;;;;;;;6.50;3.90;;;;;;;;;;5050036;28;20025;-44
2024/01/06 01:02:33;;;;;;;7.32;4.38;;;;;;;;;;5049885;28;20025;-49
2024/01/06 01:04:59;;;;;;;8.65;5.18;;;;;;;;;;5050323;28;20402;-46
2024/01/06 01:07:26;;;;;;;6.30;3.72;;;;;;;;;;5049949;28;20032;-46
2024/01/06 01:09:52;;;;;;;6.30;3.70;;;;;;;;;;5032429;28;20108;-45
2024/01/06 01:12:18;;;;;;;9.63;4.60;;;;;;;;;;5031822;28;20116;-45
2024/01/06 01:14:44;;;;;;;6.80;4.10;;;;;;;;;;5050112;28;20360;-48
2024/01/06 01:17:10;;;;;;;6.40;3.78;;;;;;;;;;5049732;28;20048;-50
2024/01/06 01:19:36;;;;;;;6.55;3.80;;;;;;;;;;5050166;28;20029;-45
2024/01/06 01:22:02;;;;;;;8.15;6.18;;;;;;;;;;5049502;28;20017;-42
2024/01/06 01:24:28;;;;;;;8.93;5.43;;;;;;;;;;5049754;28;20398;-45
2024/01/06 01:26:54;;;;;;;7.40;4.47;;;;;;;;;;5049986;28;20117;-46
2024/01/06 01:29:20;;;;;;;6.97;4.15;;;;;;;;;;5049525;28;20037;-53
2024/01/06 01:31:47;;;;;;;6.97;4.10;;;;;;;;;;5049247;28;20029;-48
2024/01/06 01:34:13;;;;;;;7.75;4.40;;;;;;;;;;5049439;28;20506;-47
2024/01/06 01:36:39;;;;;;;7.00;4.20;;;;;;;;;;5031672;28;20383;-49
2024/01/06 01:39:05;;;;;;;6.97;4.10;;;;;;;;;;5031642;28;20017;-45
2024/01/06 01:41:31;;;;;;;7.10;4.30;;;;;;;;;;5049706;28;20076;-45
2024/01/06 01:44:00;;;;;;;9.57;5.72;;;;;;;;;;5049303;28;20017;-45
2024/01/06 01:46:26;;;;;;;10.30;5.85;;;;;;;;;;5050513;28;20386;-51
2024/01/06 01:48:54;;;;;;;10.30;5.72;;;;;;;;;;5053141;28;20029;-49
2024/01/06 01:51:21;;;;;;;8.55;4.53;;;;;;;;;;5053276;28;20545;-50
2024/01/06 01:53:47;;;;;;;11.40;6.20;;;;;;;;;;5053599;28;20482;-48
2024/01/06 01:56:13;;;;;;;6.70;4.00;;;;;;;;;;5053547;28;20056;-49
2024/01/06 01:58:40;;;;;;;6.47;3.78;;;;;;;;;;5053299;28;20552;-47
2024/01/06 02:01:06;;;;;;;10.98;6.25;;;;;;;;;;5052734;28;20032;-45
2024/01/06 02:03:33;;;;;;;6.90;4.15;;;;;;;;;;5053155;28;20052;-49
2024/01/06 02:05:59;;;;;;;7.25;5.13;;;;;;;;;;5035300;28;20033;-48
2024/01/06 02:08:25;;;;;;;6.10;3.67;;;;;;;;;;5034727;28;20021;-50
2024/01/06 02:10:52;;;;;;;6.47;3.83;;;;;;;;;;5052600;28;20025;-47
2024/01/06 02:13:19;;;;;;;6.20;3.70;;;;;;;;;;5034993;28;20536;-44
2024/01/06 02:15:45;;;;;;;6.40;3.80;;;;;;;;;;5053125;28;20020;-45
2024/01/06 02:18:11;;;;;;;6.30;3.70;;;;;;;;;;5052826;28;20107;-48
2024/01/06 02:20:37;;;;;;;6.03;3.58;;;;;;;;;;5035042;28;20021;-46
2024/01/06 02:23:03;;;;;;;6.45;3.80;;;;;;;;;;5052576;28;20025;-51
2024/01/06 02:25:29;;;;;;;6.75;4.00;;;;;;;;;;5034944;28;20390;-51
2024/01/06 02:27:56;;;;;;;8.15;4.75;;;;;;;;;;5052703;28;20036;-48
2024/01/06 02:30:22;;;;;;;6.38;3.78;;;;;;;;;;5052674;28;20167;-49
2024/01/06 02:32:48;;;;;;;7.47;4.43;;;;;;;;;;5052409;28;20382;-47
2024/01/06 02:35:14;;;;;;;10.98;5.95;;;;;;;;;;5042521;28;20518;-49
2024/01/06 02:37:40;;;;;;;6.63;3.90;;;;;;;;;;5032766;28;20095;-50
2024/01/06 02:40:06;;;;;;;6.47;3.85;;;;;;;;;;5032550;28;20103;-49
2024/01/06 02:42:32;;;;;;;6.18;3.67;;;;;;;;;;5032347;28;20048;-51
2024/01/06 02:44:58;;;;;;;6.50;3.80;;;;;;;;;;5032427;28;20029;-50
2024/01/06 02:47:24;;;;;;;6.50;3.88;;;;;;;;;;5051876;28;20029;-50
2024/01/06 02:49:50;;;;;;;6.45;3.80;;;;;;;;;;5052251;28;20067;-46
2024/01/06 02:52:16;;;;;;;6.20;3.70;;;;;;;;;;5051822;28;20198;-48
2024/01/06 02:54:42;;;;;;;6.10;3.60;;;;;;;;;;5052915;28;20096;-47
2024/01/06 02:57:08;;;;;;;9.18;5.57;;;;;;;;;;5051962;28;20453;-46
2024/01/06 02:59:34;;;;;;;5.72;3.40;;;;;;;;;;5051496;28;20024;-49
2024/01/06 03:02:00;;;;;;;5.85;3.50;;;;;;;;;;5051776;28;20024;-45
2024/01/06 03:04:26;;;;;;;8.18;5.13;;;;;;;;;;5053229;28;20029;-45
2024/01/06 03:06:53;;;;;;;16.35;7.93;;;;;;;;;;5052305;28;20052;-46
2024/01/06 03:09:19;;;;;;;12.30;6.35;;;;;;;;;;5033505;28;20021;-46
2024/01/06 03:11:45;;;;;;;6.35;4.00;;;;;;;;;;5030880;28;20108;-45
2024/01/06 03:14:11;;;;;;;6.22;3.70;;;;;;;;;;5031335;28;20018;-48
2024/01/06 03:16:37;;;;;;;7.43;4.28;;;;;;;;;;5032868;28;20021;-44
2024/01/06 03:19:03;;;;;;;6.00;3.58;;;;;;;;;;5032472;28;20029;-44
2024/01/06 03:21:29;;;;;;;6.43;3.78;;;;;;;;;;5032680;28;20096;-45
2024/01/06 03:23:55;;;;;;;6.35;3.70;;;;;;;;;;5032136;28;20475;-46
2024/01/06 03:26:22;;;;;;;10.05;6.43;;;;;;;;;;5033066;28;20045;-48
2024/01/06 03:28:51;;;;;;;14.68;6.70;;;;;;;;;;5030624;28;20458;-46
2024/01/06 03:31:17;;;;;;;12.75;5.53;;;;;;;;;;5031629;28;20399;-46
2024/01/06 03:33:44;;;;;;;6.95;5.60;;;;;;;;;;5031801;28;20017;-47
2024/01/06 03:36:10;;;;;;;8.90;5.18;;;;;;;;;;5032122;28;20021;-44
2024/01/06 03:38:36;;;;;;;6.65;3.92;;;;;;;;;;5031054;28;20062;-47
2024/01/06 03:41:02;;;;;;;8.00;4.80;;;;;;;;;;5031075;28;20025;-48
2024/01/06 03:43:28;;;;;;;9.77;5.22;;;;;;;;;;5031175;28;20025;-48
2024/01/06 03:45:56;;;;;;;14.52;5.70;;;;;;;;;;5029958;28;20507;-48
2024/01/06 03:48:22;;;;;;;8.35;5.05;;;;;;;;;;5031189;28;20029;-48
2024/01/06 03:50:48;;;;;;;7.35;4.15;;;;;;;;;;5031258;28;20052;-48
2024/01/06 03:53:14;;;;;;;5.55;3.28;;;;;;;;;;5031119;28;20021;-51
2024/01/06 03:55:40;;;;;;;5.72;3.40;;;;;;;;;;5031474;28;20037;-46
2024/01/06 03:58:06;;;;;;;6.30;3.70;;;;;;;;;;5030928;28;20091;-47
2024/01/06 04:00:32;;;;;;;6.70;3.80;;;;;;;;;;5030966;28;20076;-48
2024/01/06 04:02:58;;;;;;;5.82;3.42;;;;;;;;;;5030823;28;20028;-51
2024/01/06 04:05:24;;;;;;;8.70;4.25;;;;;;;;;;5031807;28;20491;-48
2024/01/06 04:07:50;;;;;;;5.95;3.53;;;;;;;;;;5050561;28;20151;-49
2024/01/06 04:10:16;;;;;;;6.30;3.70;;;;;;;;;;5049456;28;20645;-46
2024/01/06 04:12:42;;;;;;;7.07;4.78;;;;;;;;;;5032397;28;20103;-44
2024/01/06 04:15:08;;;;;;;12.00;4.93;;;;;;;;;;5050361;28;20552;-44
2024/01/06 04:17:34;;;;;;;6.95;4.40;;;;;;;;;;5050471;28;20021;-51
2024/01/06 04:20:00;;;;;;;8.40;4.70;;;;;;;;;;5032872;28;20094;-44
2024/01/06 04:22:26;;;;;;;5.20;3.00;;;;;;;;;;5050065;28;20035;-46
2024/01/06 04:24:52;;;;;;;8.20;3.97;;;;;;;;;;5029160;28;20026;-46
2024/01/06 04:27:18;;;;;;;5.95;3.40;;;;;;;;;;5029158;28;20071;-47
2024/01/06 04:29:44;;;;;;;5.47;3.22;;;;;;;;;;5030454;28;20060;-48
2024/01/06 04:32:10;;;;;;;7.95;4.05;;;;;;;;;;5030089;28;20039;-49
2024/01/06 04:34:36;;;;;;;5.00;3.00;;;;;;;;;;5030719;28;20025;-43
2024/01/06 04:37:02;;;;;;;5.40;3.20;;;;;;;;;;5028897;28;20495;-46
2024/01/06 04:39:28;;;;;;;8.10;6.22;;;;;;;;;;5028980;28;20117;-46
2024/01/06 04:41:54;;;;;;;7.70;4.57;;;;;;;;;;5030291;28;20033;-50
2024/01/06 04:44:22;;;;;;;17.15;5.07;;;;;;;;;;5030541;28;20032;-47
2024/01/06 04:46:48;;;;;;;5.55;3.30;;;;;;;;;;5029085;28;20029;-45
2024/01/06 04:49:13;;;;;;;9.75;5.30;;;;;;;;;;5030775;28;20026;-46
2024/01/06 04:51:39;;;;;;;6.38;3.50;;;;;;;;;;5030208;28;20014;-44
2024/01/06 04:54:05;;;;;;;6.65;3.78;;;;;;;;;;5030722;28;20025;-46
2024/01/06 04:56:31;;;;;;;5.93;3.50;;;;;;;;;;5029245;28;20465;-47
2024/01/06 04:58:57;;;;;;;6.18;3.60;;;;;;;;;;5030128;28;20048;-47
2024/01/06 05:01:24;;;;;;;6.03;3.60;;;;;;;;;;5030144;28;20022;-48
2024/01/06 05:03:50;;;;;;;6.47;3.85;;;;;;;;;;5030389;28;20029;-44
2024/01/06 05:06:16;;;;;;;7.85;4.85;;;;;;;;;;5030254;28;20017;-46
2024/01/06 05:08:44;;;;;;;7.57;4.53;;;;;;;;;;5030050;28;20096;-45
2024/01/06 05:11:11;;;;;;;6.95;4.00;;;;;;;;;;5029614;28;20129;-45
2024/01/06 05:13:37;;;;;;;8.88;4.63;;;;;;;;;;5030241;28;20097;-48
2024/01/06 05:16:03;;;;;;;6.50;3.88;;;;;;;;;;5029795;28;20025;-47
2024/01/06 05:18:29;;;;;;;7.97;4.75;;;;;;;;;;5029973;28;20021;-47
2024/01/06 05:20:56;;;;;;;6.65;3.92;;;;;;;;;;5029566;28;20533;-49
2024/01/06 05:23:22;;;;;;;7.10;4.20;;;;;;;;;;5030049;28;21025;-45
2024/01/06 05:25:48;;;;;;;6.90;4.10;;;;;;;;;;5029857;28;20101;-49
2024/01/06 05:28:14;;;;;;;7.63;4.40;;;;;;;;;;5028209;28;20365;-44
2024/01/06 05:30:40;;;;;;;7.22;4.32;;;;;;;;;;5028148;28;20024;-51
2024/01/06 05:33:06;;;;;;;8.65;5.40;;;;;;;;;;5028252;28;20017;-46
2024/01/06 05:35:32;;;;;;;6.93;4.10;;;;;;;;;;5029550;28;20017;-48
2024/01/06 05:37:58;;;;;;;7.20;4.53;;;;;;;;;;5029726;28;20030;-48
2024/01/06 05:40:24;;;;;;;6.50;3.85;;;;;;;;;;5029331;28;20033;-51
2024/01/06 05:42:52;;;;;;;6.80;4.00;;;;;;;;;;5029377;28;20057;-48
2024/01/06 05:45:18;;;;;;;7.05;4.22;;;;;;;;;;5029415;28;20113;-49
2024/01/06 05:47:44;;;;;;;8.80;5.18;;;;;;;;;;5029436;28;20105;-48
2024/01/06 05:50:10;;;;;;;7.70;4.60;;;;;;;;;;5029390;28;20025;-47
2024/01/06 05:52:36;;;;;;;10.02;6.13;;;;;;;;;;5029297;28;20415;-49
2024/01/06 05:55:02;;;;;;;6.82;4.10;;;;;;;;;;5028317;28;20502;-47
2024/01/06 05:57:28;;;;;;;8.35;5.18;;;;;;;;;;5029419;28;20018;-48
2024/01/06 05:59:54;;;;;;;6.60;3.80;;;;;;;;;;5029637;28;20383;-48
2024/01/06 06:02:20;;;;;;;6.85;3.97;;;;;;;;;;5029347;28;20291;-49
2024/01/06 06:04:46;;;;;;;6.20;3.67;;;;;;;;;;5029754;28;20018;-46
2024/01/06 06:07:12;;;;;;;7.15;4.72;;;;;;;;;;5029438;28;20398;-47
2024/01/06 06:09:39;;;;;;;10.60;6.35;;;;;;;;;;5029832;28;20021;-47
2024/01/06 06:12:05;;;;;;;7.43;4.43;;;;;;;;;;5029502;28;20021;-45
2024/01/06 06:14:31;;;;;;;6.45;3.80;;;;;;;;;;5029663;28;20083;-47
2024/01/06 06:16:57;;;;;;;7.60;4.25;;;;;;;;;;5029464;28;20103;-46
2024/01/06 06:19:23;;;;;;;6.60;3.90;;;;;;;;;;5029218;28;20399;-44
2024/01/06 06:21:49;;;;;;;6.55;3.92;;;;;;;;;;5027548;28;20017;-47
2024/01/06 06:24:15;;;;;;;6.80;4.10;;;;;;;;;;5029108;28;20549;-44
2024/01/06 06:26:41;;;;;;;7.85;4.53;;;;;;;;;;5029023;28;20065;-49
2024/01/06 06:29:07;;;;;;;8.38;4.80;;;;;;;;;;5029321;28;20030;-46
2024/01/06 06:31:33;;;;;;;7.93;5.13;;;;;;;;;;5027745;28;20029;-49
2024/01/06 06:33:59;;;;;;;14.32;6.22;;;;;;;;;;5029375;28;20487;-48
2024/01/06 06:36:25;;;;;;;6.10;3.60;;;;;;;;;;5032434;28;20091;-48
2024/01/06 06:38:51;;;;;;;6.13;3.63;;;;;;;;;;5101883;22;20044;-56
2024/01/06 06:41:17;;;;;;;6.75;4.05;;;;;;;;;;5090911;28;20040;-55
2024/01/06 06:43:43;;;;;;;8.68;4.55;;;;;;;;;;5091704;28;20017;-53
2024/01/06 06:46:09;;;;;;;5.65;3.42;;;;;;;;;;5091768;28;20032;-52
2024/01/06 06:48:36;;;;;;;5.40;3.28;;;;;;;;;;5087180;28;20027;-50
2024/01/06 06:51:02;;;;;;;5.90;3.50;;;;;;;;;;5111439;28;20024;-54
2024/01/06 06:53:28;;;;;;;5.95;3.58;;;;;;;;;;5111468;28;20027;-56
2024/01/06 06:55:54;;;;;;;6.07;3.60;;;;;;;;;;5111532;28;20052;-58
2024/01/06 06:58:20;;;;;;;6.20;3.70;;;;;;;;;;5092981;28;20032;-57
2024/01/06 07:00:46;;;;;;;5.90;3.50;;;;;;;;;;5111692;28;20020;-54
2024/01/06 07:03:14;;;;;;;5.97;3.50;;;;;;;;;;5111105;28;20043;-52
2024/01/06 07:05:39;;;;;;;5.90;3.50;;;;;;;;;;5111266;28;20449;-53
2024/01/06 07:08:06;;;;;;;6.50;4.05;;;;;;;;;;5111196;28;20102;-52
2024/01/06 07:10:32;;;;;;;10.27;5.05;;;;;;;;;;5111400;28;20030;-55
2024/01/06 07:12:58;;;;;;;5.50;3.30;;;;;;;;;;5111130;28;20416;-52
2024/01/06 07:15:24;;;;;;;5.55;3.30;;;;;;;;;;5110999;28;20028;-54
2024/01/06 07:17:50;;;;;;;10.82;5.90;;;;;;;;;;5102370;28;20023;-55
2024/01/06 07:20:16;;;;;;;5.90;3.45;;;;;;;;;;5105839;28;20016;-54
2024/01/06 07:22:42;;;;;;;5.60;3.30;;;;;;;;;;5088869;28;20026;-54
2024/01/06 07:25:08;;;;;;;6.05;3.60;;;;;;;;;;5099409;28;20108;-54
2024/01/06 07:27:34;;;;;;;5.70;3.40;;;;;;;;;;5111051;28;20027;-55
2024/01/06 07:30:00;;;;;;;8.13;4.57;;;;;;;;;;5111155;28;20027;-58
2024/01/06 07:32:26;;;;;;;9.52;4.57;;;;;;;;;;5111459;28;20035;-56
2024/01/06 07:34:52;;;;;;;8.75;3.78;;;;;;;;;;5108035;28;20655;-52
2024/01/06 07:37:18;;;;;;;5.90;3.55;;;;;;;;;;5102150;28;20027;-55
2024/01/06 07:39:44;;;;;;;6.35;4.03;;;;;;;;;;5110711;28;20473;-55
2024/01/06 07:42:10;;;;;;;6.68;4.07;;;;;;;;;;5092148;28;20036;-54
2024/01/06 07:44:36;;;;;;;7.13;4.50;;;;;;;;;;5110462;28;20030;-54
2024/01/06 07:47:05;;;;;;;8.90;6.22;;;;;;;;;;5110441;28;20465;-53
2024/01/06 07:49:31;;;;;;;;;;;;;;;;;;5110871;28;20481;-51
2024/01/06 07:51:57;;;;;;;5.72;3.40;;;;;;;;;;5107557;28;19961;-54
2024/01/06 07:54:23;;;;;;;5.90;3.50;;;;;;;;;;5110105;28;20028;-57
2024/01/06 07:56:49;;;;;;;6.25;3.70;;;;;;;;;;5091999;28;20389;-56
2024/01/06 07:59:15;;;;;;;6.40;3.80;;;;;;;;;;5109787;28;20016;-55
2024/01/06 08:01:42;;;;;;;7.68;4.43;;;;;;;;;;5109913;28;20020;-55
2024/01/06 08:04:09;;;;;;;6.10;3.65;;;;;;;;;;5091435;28;20023;-57
2024/01/06 08:06:35;;;;;;;6.00;3.60;;;;;;;;;;5091616;28;20019;-56
2024/01/06 08:09:01;;;;;;;8.23;4.78;;;;;;;;;;5109828;28;20102;-58
2024/01/06 08:11:27;;;;;;;5.57;3.30;;;;;;;;;;5091167;28;20403;-52
2024/01/06 08:13:53;;;;;;;5.90;3.50;;;;;;;;;;5109852;28;20498;-55
2024/01/06 08:16:20;;;;;;;6.47;3.80;;;;;;;;;;5109561;28;20038;-56
2024/01/06 08:18:46;;;;;;;6.50;3.88;;;;;;;;;;5090993;28;20023;-57
2024/01/06 08:21:12;;;;;;;6.40;3.80;;;;;;;;;;5109120;28;20035;-57
2024/01/06 08:23:38;;;;;;;9.35;5.18;;;;;;;;;;5109530;28;20034;-52
2024/01/06 08:26:06;;;;;;;6.50;3.90;;;;;;;;;;5109504;28;20465;-53
2024/01/06 08:28:32;;;;;;;6.70;3.95;;;;;;;;;;5109415;28;20071;-55
2024/01/06 08:30:58;;;;;;;8.00;4.65;;;;;;;;;;5109133;28;20085;-46
2024/01/06 08:33:24;;;;;;;6.80;4.00;;;;;;;;;;5109277;28;20081;-53
2024/01/06 08:35:50;;;;;;;7.20;4.35;;;;;;;;;;5109252;28;20068;-53
2024/01/06 08:38:16;;;;;;;6.65;3.92;;;;;;;;;;5109059;28;20461;-51
2024/01/06 08:40:44;;;;;;;6.50;3.80;;;;;;;;;;5090927;28;20548;-51
2024/01/06 08:43:09;;;;;;;8.30;5.03;;;;;;;;;;5090518;28;20043;-50
2024/01/06 08:45:35;;;;;;;8.10;5.18;;;;;;;;;;5090854;28;20453;-56
2024/01/06 08:48:01;;;;;;;8.35;5.05;;;;;;;;;;5108876;28;20116;-55
2024/01/06 08:50:27;;;;;;;6.10;3.65;;;;;;;;;;5109122;28;20034;-55
2024/01/06 08:52:54;;;;;;;5.10;3.00;;;;;;;;;;5086937;28;20042;-51
2024/01/06 08:55:20;;;;;;;6.25;3.75;;;;;;;;;;5088434;28;20028;-56
2024/01/06 08:57:46;;;;;;;5.10;3.00;;;;;;;;;;5088047;28;20090;-53
2024/01/06 09:00:12;;;;;;;9.88;5.50;;;;;;;;;;5088568;28;20405;-52
2024/01/06 09:02:38;;;;;;;15.20;12.38;;;;;;;;;;5088284;28;20032;-54
2024/01/06 09:05:04;;;;;;;12.07;6.13;;;;;;;;;;5096951;28;20103;-52
2024/01/06 09:07:30;;;;;;;5.40;3.20;;;;;;;;;;5108971;28;20073;-51
2024/01/06 09:09:56;;;;;;;5.40;3.20;;;;;;;;;;5107474;28;20032;-52
2024/01/06 09:12:22;;;;;;;7.38;4.25;;;;;;;;;;5107091;28;20363;-52
2024/01/06 09:14:48;;;;;;;7.35;4.25;;;;;;;;;;5108072;28;20046;-50
2024/01/06 09:17:14;;;;;;;5.60;3.30;;;;;;;;;;5108010;28;20020;-54
2024/01/06 09:19:40;;;;;;;5.93;3.50;;;;;;;;;;5107835;28;20027;-55
2024/01/06 09:22:06;;;;;;;6.65;3.90;;;;;;;;;;5107900;28;20023;-56
2024/01/06 09:24:33;;;;;;;9.15;4.93;;;;;;;;;;5108671;28;20476;-53
2024/01/06 09:26:59;;;;;;;9.90;5.18;;;;;;;;;;5109130;28;20156;-49
2024/01/06 09:29:25;;;;;;;7.72;4.65;;;;;;;;;;5091104;28;20036;-51
2024/01/06 09:31:52;;;;;;;6.70;4.00;;;;;;;;;;5108676;28;20042;-53
2024/01/06 09:34:18;;;;;;;6.55;3.90;;;;;;;;;;5109304;28;20431;-53
2024/01/06 09:36:44;;;;;;;11.20;7.05;;;;;;;;;;5108837;28;20078;-53
2024/01/06 09:39:10;;;;;;;6.80;4.00;;;;;;;;;;5108755;28;20044;-50
2024/01/06 09:41:36;;;;;;;7.50;4.50;;;;;;;;;;5108712;28;20104;-47
2024/01/06 09:44:02;;;;;;;8.30;4.53;;;;;;;;;;5109029;28;20019;-54
2024/01/06 09:46:31;;;;;;;7.03;4.20;;;;;;;;;;5108865;28;20028;-53
2024/01/06 09:48:58;;;;;;;8.25;4.75;;;;;;;;;;5108815;28;20032;-55
2024/01/06 09:51:25;;;;;;;7.20;4.28;;;;;;;;;;5108715;28;20024;-52
2024/01/06 09:53:58;;;;;;;8.95;5.15;;;;;;;;;;5108890;28;20119;-52
2024/01/06 09:56:25;;;;;;;7.07;4.22;;;;;;;;;;5109212;28;20398;-50
2024/01/06 09:58:51;;;;;;;12.23;5.72;;;;;;;;;;5090450;28;20474;-49
2024/01/06 10:01:20;;;;;;;6.57;3.90;;;;;;;;;;5108795;28;20439;-50
2024/01/06 10:03:46;;;;;;;6.93;4.10;;;;;;;;;;5108891;28;20023;-51
2024/01/06 10:06:15;;;;;;;7.78;4.70;;;;;;;;;;5108673;28;20069;-52
2024/01/06 10:08:45;;;;;;;8.05;4.78;;;;;;;;;;5110162;28;20110;-53
2024/01/06 10:11:11;;;;;;;7.95;4.80;;;;;;;;;;5093792;28;20484;-49
2024/01/06 10:13:38;;;;;;;11.70;5.97;;;;;;;;;;5112179;28;20062;-53
2024/01/06 10:16:04;;;;;;;7.30;4.40;;;;;;;;;;5112586;28;20024;-50
2024/01/06 10:18:31;;;;;;;7.20;4.30;;;;;;;;;;5093984;28;20118;-54
2024/01/06 10:20:57;;;;;;;7.80;4.60;;;;;;;;;;5112215;28;20161;-53
2024/01/06 10:23:24;;;;;;;7.30;4.40;;;;;;;;;;5093729;28;20024;-52
2024/01/06 10:25:56;;;;;;;7.60;4.50;;;;;;;;;;5112237;28;20048;-50
2024/01/06 10:28:25;;;;;;;6.85;4.07;;;;;;;;;;5093805;28;20016;-54
2024/01/06 10:30:54;;;;;;;6.93;4.10;;;;;;;;;;5111793;28;20050;-53
2024/01/06 10:33:21;;;;;;;7.07;4.20;;;;;;;;;;5112192;28;20035;-50
2024/01/06 10:35:47;;;;;;;13.68;6.38;;;;;;;;;;5112137;28;20520;-54
2024/01/06 10:38:15;;;;;;;7.40;4.40;;;;;;;;;;5111800;28;20039;-54
2024/01/06 10:40:56;;;;;;;8.50;4.85;;;;;;;;;;5111651;28;20485;-53
2024/01/06 10:43:23;;;;;;;9.80;5.80;;;;;;;;;;5111973;28;20027;-52
2024/01/06 10:45:50;;;;;;;7.10;4.20;;;;;;;;;;5111892;28;20103;-54
2024/01/06 10:48:16;;;;;;;6.43;3.80;;;;;;;;;;5111527;28;20477;-52
2024/01/06 10:50:42;;;;;;;6.60;3.90;;;;;;;;;;5111746;28;20031;-50
2024/01/06 10:53:08;;;;;;;8.10;4.55;;;;;;;;;;5111748;28;20024;-50
2024/01/06 10:55:35;;;;;;;6.30;3.72;;;;;;;;;;5093730;28;20027;-55
2024/01/06 10:58:01;;;;;;;6.18;3.60;;;;;;;;;;5093236;28;20038;-53
2024/01/06 11:00:27;;;;;;;6.18;3.63;;;;;;;;;;5111790;28;20076;-56
2024/01/06 11:02:54;;;;;;;5.90;3.50;;;;;;;;;;5111520;28;20038;-54
2024/01/06 11:05:21;;;;;;;7.57;4.20;;;;;;;;;;5093299;28;20420;-50
2024/01/06 11:07:49;;;;;;;5.80;3.45;;;;;;;;;;5111874;28;20155;-53
2024/01/06 11:10:16;;;;;;;5.80;3.40;;;;;;;;;;5111447;28;20036;-49
2024/01/06 11:12:43;;;;;;;6.20;3.63;;;;;;;;;;5111311;28;20028;-54
2024/01/06 11:15:09;;;;;;;6.70;4.00;;;;;;;;;;5111369;28;20071;-49
2024/01/06 11:17:53;;;;;;;6.32;3.70;;;;;;;;;;5093219;28;20031;-52
2024/01/06 11:20:20;;;;;;;6.30;3.70;;;;;;;;;;5110900;28;20361;-53
2024/01/06 11:22:46;;;;;;;7.50;4.43;;;;;;;;;;5092967;28;20115;-51
2024/01/06 11:25:16;;;;;;;7.13;4.28;;;;;;;;;;5111441;28;20425;-51
2024/01/06 11:27:44;;;;;;;7.70;4.60;;;;;;;;;;5111414;28;20071;-51
2024/01/06 11:30:19;;;;;;;8.57;5.28;;;;;;;;;;5111405;28;20083;-50
2024/01/06 11:32:46;;;;;;;6.80;4.07;;;;;;;;;;5111767;28;20084;-55
2024/01/06 11:35:13;;;;;;;8.40;6.13;;;;;;;;;;5093642;28;20438;-52
2024/01/06 11:37:42;;;;;;;6.88;4.10;;;;;;;;;;5092374;28;20743;-51
2024/01/06 11:40:08;;;;;;;11.50;4.78;;;;;;;;;;5110851;28;20039;-55
2024/01/06 11:42:35;;;;;;;6.50;3.85;;;;;;;;;;5110537;28;20102;-56
2024/01/06 11:45:05;;;;;;;6.00;3.50;;;;;;;;;;5092337;28;20043;-49
2024/01/06 11:47:32;;;;;;;5.82;3.45;;;;;;;;;;5110910;28;20055;-53
2024/01/06 11:49:59;;;;;;;5.88;3.50;;;;;;;;;;5110606;28;20069;-53
2024/01/06 11:52:25;;;;;;;5.90;3.50;;;;;;;;;;5110612;28;20043;-54
2024/01/06 11:54:55;;;;;;;5.97;3.55;;;;;;;;;;5110608;28;20060;-56
2024/01/06 11:57:21;;;;;;;6.45;3.80;;;;;;;;;;5110198;28;20024;-52
2024/01/06 11:59:48;;;;;;;11.55;4.97;;;;;;;;;;5110313;28;20200;-55
2024/01/06 12:02:14;;;;;;;6.13;3.60;;;;;;;;;;5110106;28;20101;-52
2024/01/06 12:04:41;;;;;;;6.40;3.80;;;;;;;;;;5083353;28;20036;-53
2024/01/06 12:07:14;;;;;;;9.25;5.32;;;;;;;;;;5088633;28;20489;-50
2024/01/06 12:09:40;;;;;;;9.35;4.35;;;;;;;;;;5109811;28;20027;-53
2024/01/06 12:12:06;;;;;;;6.05;3.55;;;;;;;;;;5091941;28;20378;-51
2024/01/06 12:14:32;;;;;;;5.38;3.20;;;;;;;;;;5110219;28;20042;-55
2024/01/06 12:17:02;;;;;;;5.80;3.40;;;;;;;;;;5091562;28;20099;-55
2024/01/06 12:19:29;;;;;;;6.00;3.55;;;;;;;;;;5089386;28;20048;-55
2024/01/06 12:21:55;;;;;;;8.73;4.88;;;;;;;;;;5089331;28;20027;-53
2024/01/06 12:24:21;;;;;;;5.38;3.22;;;;;;;;;;5071204;28;20051;-51
2024/01/06 12:26:47;;;;;;;5.40;3.20;;;;;;;;;;5089612;28;20246;-50
2024/01/06 12:29:13;;;;;;;5.50;3.30;;;;;;;;;;5089498;28;20051;-52
2024/01/06 12:31:40;;;;;;;6.80;4.50;;;;;;;;;;5088465;28;20043;-52
2024/01/06 12:34:07;;;;;;;5.78;3.40;;;;;;;;;;5089096;28;20077;-50
2024/01/06 12:36:34;;;;;;;5.70;3.40;;;;;;;;;;5089384;28;20367;-51
2024/01/06 12:39:01;;;;;;;6.88;3.60;;;;;;;;;;5089491;28;20043;-52
2024/01/06 12:41:28;;;;;;;5.40;3.20;;;;;;;;;;5071124;28;20035;-53
2024/01/06 12:43:54;;;;;;;5.90;3.50;;;;;;;;;;5089183;28;20436;-50
2024/01/06 12:46:20;;;;;;;5.70;3.40;;;;;;;;;;5089379;28;20025;-51
2024/01/06 12:48:46;;;;;;;6.00;3.58;;;;;;;;;;5070892;28;20117;-53
2024/01/06 12:51:12;;;;;;;6.10;3.67;;;;;;;;;;5089050;28;20020;-51
2024/01/06 12:53:38;;;;;;;5.95;3.55;;;;;;;;;;5089022;28;20020;-51
2024/01/06 12:56:05;;;;;;;5.93;3.50;;;;;;;;;;5070990;28;20024;-51
2024/01/06 12:58:31;;;;;;;6.00;3.60;;;;;;;;;;5088838;28;20439;-49
2024/01/06 13:00:57;;;;;;;6.20;3.65;;;;;;;;;;5088624;28;20577;-54
2024/01/06 13:03:22;;;;;;;5.25;3.15;;;;;;;;;;5092372;28;20056;-55
2024/01/06 13:05:48;;;;;;;7.13;3.70;;;;;;;;;;5090940;28;20170;-50
2024/01/06 13:08:15;;;;;;;5.70;3.35;;;;;;;;;;5088682;28;20028;-52
2024/01/06 13:10:41;;;;;;;5.80;3.40;;;;;;;;;;5088765;28;20027;-51
2024/01/06 13:13:07;;;;;;;6.30;3.80;;;;;;;;;;5088507;28;20012;-49
2024/01/06 13:15:33;;;;;;;5.70;3.40;;;;;;;;;;5084676;28;20476;-53
2024/01/06 13:17:59;;;;;;;5.80;3.40;;;;;;;;;;5102637;28;20099;-53
2024/01/06 13:20:25;;;;;;;6.15;3.50;;;;;;;;;;5082583;28;20107;-54
2024/01/06 13:22:51;;;;;;;6.60;3.90;;;;;;;;;;5102773;28;20070;-54
2024/01/06 13:25:17;;;;;;;6.10;3.60;;;;;;;;;;5098710;28;20111;-54
2024/01/06 13:27:43;;;;;;;5.95;3.55;;;;;;;;;;5084227;28;20023;-53
2024/01/06 13:30:12;;;;;;;5.80;3.42;;;;;;;;;;5099179;28;20118;-51
2024/01/06 13:32:38;;;;;;;5.97;3.50;;;;;;;;;;5088449;28;20012;-54
2024/01/06 13:35:05;;;;;;;6.00;3.60;;;;;;;;;;5088541;28;20024;-54
2024/01/06 13:37:34;;;;;;;6.10;3.60;;;;;;;;;;5100562;28;20044;-54
2024/01/06 13:40:00;;;;;;;6.60;4.00;;;;;;;;;;5108781;28;20023;-55
2024/01/06 13:42:26;;;;;;;6.80;4.10;;;;;;;;;;5109362;28;20027;-54
2024/01/06 13:44:53;;;;;;;6.30;3.70;;;;;;;;;;5112738;28;20078;-51
2024/01/06 13:47:19;;;;;;;5.50;3.30;;;;;;;;;;5094018;28;20027;-56
2024/01/06 13:49:45;;;;;;;6.65;3.90;;;;;;;;;;5112520;28;20046;-52
2024/01/06 13:52:11;;;;;;;5.78;3.40;;;;;;;;;;5111978;28;20108;-52
2024/01/06 13:54:36;;;;;;;5.57;3.30;;;;;;;;;;5112400;28;20469;-52
2024/01/06 13:57:02;;;;;;;5.78;3.47;;;;;;;;;;5112482;28;20015;-52
2024/01/06 13:59:28;;;;;;;6.05;3.60;;;;;;;;;;5112479;28;20103;-54
2024/01/06 14:01:55;;;;;;;6.32;3.75;;;;;;;;;;5112115;28;20045;-52
2024/01/06 14:04:23;;;;;;;6.20;3.70;;;;;;;;;;5093627;28;20035;-53
2024/01/06 14:06:55;;;;;;;;;;;;;;;;;;5112906;28;20081;-50
2024/01/06 14:09:21;;;;;;;6.50;3.80;;;;;;;;;;5094018;28;20249;-52
2024/01/06 14:11:47;;;;;;;5.85;3.45;;;;;;;;;;5111663;28;20111;-53
2024/01/06 14:14:13;;;;;;;6.20;3.70;;;;;;;;;;5112118;28;20030;-56
2024/01/06 14:16:39;;;;;;;7.95;5.15;;;;;;;;;;5111943;28;20023;-55
2024/01/06 14:19:05;;;;;;;6.35;3.80;;;;;;;;;;5111940;28;20045;-55
2024/01/06 14:21:31;;;;;;;6.65;3.90;;;;;;;;;;5111809;28;20091;-55
2024/01/06 14:23:58;;;;;;;5.90;3.50;;;;;;;;;;5111914;28;20111;-52
2024/01/06 14:26:24;;;;;;;5.90;3.50;;;;;;;;;;5111739;28;20038;-55
2024/01/06 14:28:50;;;;;;;5.90;3.50;;;;;;;;;;5111567;28;20031;-54
2024/01/06 14:31:16;;;;;;;5.97;3.50;;;;;;;;;;5111179;28;20028;-48
2024/01/06 14:33:42;;;;;;;6.20;3.60;;;;;;;;;;5111297;28;20024;-53
2024/01/06 14:36:08;;;;;;;5.60;3.30;;;;;;;;;;5111307;28;20064;-54
2024/01/06 14:38:34;;;;;;;5.60;3.30;;;;;;;;;;5111315;28;20024;-54